Terminal Aerodrome Forecast
Issued by NWS

Home | Current Version | Previous Version | Text Only | Print | Product List | Glossary On
Versions: 1 2 3 4 5 6 7 8 9 10 11 12
903
FTUS44 KEPZ 300527
TAFLRU
TAF
KLRU 300527Z 3006/3106 21006KT P6SM FEW110
     FM301000 27007KT P6SM SKC
     FM302000 23018G28KT P6SM FEW250
     FM310300 23010G20KT P6SM SCT250=

USA.gov is the U.S. government's official web portal to all federal, state and local government web resources and services.